sensor_id;sensor_type;location;lat;lon;timestamp;temperature;humidity
67722;SHT31;58309;45.292;11.820;2023-05-07T00:00:33;15.46;88.20
67722;SHT31;58309;45.292;11.820;2023-05-07T00:02:59;15.41;88.60
67722;SHT31;58309;45.292;11.820;2023-05-07T00:05:25;15.34;88.62
67722;SHT31;58309;45.292;11.820;2023-05-07T00:07:51;15.28;88.60
67722;SHT31;58309;45.292;11.820;2023-05-07T00:10:18;15.20;88.62
67722;SHT31;58309;45.292;11.820;2023-05-07T00:12:44;15.12;88.73
67722;SHT31;58309;45.292;11.820;2023-05-07T00:15:10;14.94;88.69
67722;SHT31;58309;45.292;11.820;2023-05-07T00:17:35;14.85;89.27
67722;SHT31;58309;45.292;11.820;2023-05-07T00:20:02;14.79;89.55
67722;SHT31;58309;45.292;11.820;2023-05-07T00:22:28;14.73;89.66
67722;SHT31;58309;45.292;11.820;2023-05-07T00:24:55;14.64;89.96
67722;SHT31;58309;45.292;11.820;2023-05-07T00:27:22;14.62;90.17
67722;SHT31;58309;45.292;11.820;2023-05-07T00:29:47;14.57;90.39
67722;SHT31;58309;45.292;11.820;2023-05-07T00:32:13;14.57;90.72
67722;SHT31;58309;45.292;11.820;2023-05-07T00:34:38;14.59;91.01
67722;SHT31;58309;45.292;11.820;2023-05-07T00:37:05;14.63;90.88
67722;SHT31;58309;45.292;11.820;2023-05-07T00:39:33;14.67;90.81
67722;SHT31;58309;45.292;11.820;2023-05-07T00:41:58;14.73;90.44
67722;SHT31;58309;45.292;11.820;2023-05-07T00:44:25;14.77;90.42
67722;SHT31;58309;45.292;11.820;2023-05-07T00:46:52;14.77;90.57
67722;SHT31;58309;45.292;11.820;2023-05-07T00:49:17;14.81;90.32
67722;SHT31;58309;45.292;11.820;2023-05-07T00:51:44;14.84;90.15
67722;SHT31;58309;45.292;11.820;2023-05-07T00:54:10;14.87;90.28
67722;SHT31;58309;45.292;11.820;2023-05-07T00:56:36;14.91;89.94
67722;SHT31;58309;45.292;11.820;2023-05-07T00:59:03;14.94;89.84
67722;SHT31;58309;45.292;11.820;2023-05-07T01:01:29;14.97;90.10
67722;SHT31;58309;45.292;11.820;2023-05-07T01:03:55;14.97;89.90
67722;SHT31;58309;45.292;11.820;2023-05-07T01:06:21;15.00;89.93
67722;SHT31;58309;45.292;11.820;2023-05-07T01:08:48;15.01;90.20
67722;SHT31;58309;45.292;11.820;2023-05-07T01:11:16;15.04;89.80
67722;SHT31;58309;45.292;11.820;2023-05-07T01:13:44;15.04;89.84
67722;SHT31;58309;45.292;11.820;2023-05-07T01:16:10;15.01;89.85
67722;SHT31;58309;45.292;11.820;2023-05-07T01:18:36;15.03;89.59
67722;SHT31;58309;45.292;11.820;2023-05-07T01:21:04;15.04;89.89
67722;SHT31;58309;45.292;11.820;2023-05-07T01:23:30;15.01;89.70
67722;SHT31;58309;45.292;11.820;2023-05-07T01:25:55;15.01;89.74
67722;SHT31;58309;45.292;11.820;2023-05-07T01:28:21;14.97;89.75
67722;SHT31;58309;45.292;11.820;2023-05-07T01:30:51;14.94;89.89
67722;SHT31;58309;45.292;11.820;2023-05-07T01:33:20;14.91;90.13
67722;SHT31;58309;45.292;11.820;2023-05-07T01:35:51;14.94;90.28
67722;SHT31;58309;45.292;11.820;2023-05-07T01:38:18;14.94;89.93
67722;SHT31;58309;45.292;11.820;2023-05-07T01:40:45;14.93;89.39
67722;SHT31;58309;45.292;11.820;2023-05-07T01:43:11;14.91;89.39
67722;SHT31;58309;45.292;11.820;2023-05-07T01:45:36;14.85;89.68
67722;SHT31;58309;45.292;11.820;2023-05-07T01:48:03;14.79;89.67
67722;SHT31;58309;45.292;11.820;2023-05-07T01:50:29;14.81;90.32
67722;SHT31;58309;45.292;11.820;2023-05-07T01:52:55;14.83;90.35
67722;SHT31;58309;45.292;11.820;2023-05-07T01:55:21;14.85;90.48
67722;SHT31;58309;45.292;11.820;2023-05-07T01:57:47;14.90;90.28
67722;SHT31;58309;45.292;11.820;2023-05-07T02:00:12;14.88;90.01
67722;SHT31;58309;45.292;11.820;2023-05-07T02:02:38;14.90;90.11
67722;SHT31;58309;45.292;11.820;2023-05-07T02:05:04;14.91;90.12
67722;SHT31;58309;45.292;11.820;2023-05-07T02:07:30;14.94;90.15
67722;SHT31;58309;45.292;11.820;2023-05-07T02:09:55;14.93;90.48
67722;SHT31;58309;45.292;11.820;2023-05-07T02:12:22;14.95;89.90
67722;SHT31;58309;45.292;11.820;2023-05-07T02:14:47;14.95;89.87
67722;SHT31;58309;45.292;11.820;2023-05-07T02:17:13;14.97;89.55
67722;SHT31;58309;45.292;11.820;2023-05-07T02:19:39;14.97;89.81
67722;SHT31;58309;45.292;11.820;2023-05-07T02:22:04;14.95;89.87
67722;SHT31;58309;45.292;11.820;2023-05-07T02:24:30;14.91;89.90
67722;SHT31;58309;45.292;11.820;2023-05-07T02:26:56;14.90;90.08
67722;SHT31;58309;45.292;11.820;2023-05-07T02:29:21;14.87;90.10
67722;SHT31;58309;45.292;11.820;2023-05-07T02:31:47;14.85;90.26
67722;SHT31;58309;45.292;11.820;2023-05-07T02:34:16;14.83;90.56
67722;SHT31;58309;45.292;11.820;2023-05-07T02:36:42;14.74;90.45
67722;SHT31;58309;45.292;11.820;2023-05-07T02:39:07;14.57;90.28
67722;SHT31;58309;45.292;11.820;2023-05-07T02:41:33;14.44;90.93
67722;SHT31;58309;45.292;11.820;2023-05-07T02:43:58;14.32;91.04
67722;SHT31;58309;45.292;11.820;2023-05-07T02:46:24;14.21;91.36
67722;SHT31;58309;45.292;11.820;2023-05-07T02:48:49;14.13;91.37
67722;SHT31;58309;45.292;11.820;2023-05-07T02:51:20;14.09;91.79
67722;SHT31;58309;45.292;11.820;2023-05-07T02:53:45;14.04;91.58
67722;SHT31;58309;45.292;11.820;2023-05-07T02:56:11;13.97;92.17
67722;SHT31;58309;45.292;11.820;2023-05-07T02:58:37;13.98;92.31
67722;SHT31;58309;45.292;11.820;2023-05-07T03:01:05;13.95;92.33
67722;SHT31;58309;45.292;11.820;2023-05-07T03:03:31;14.01;92.21
67722;SHT31;58309;45.292;11.820;2023-05-07T03:05:57;14.01;92.40
67722;SHT31;58309;45.292;11.820;2023-05-07T03:08:22;14.05;92.56
67722;SHT31;58309;45.292;11.820;2023-05-07T03:10:48;14.12;92.50
67722;SHT31;58309;45.292;11.820;2023-05-07T03:13:14;14.18;92.46
67722;SHT31;58309;45.292;11.820;2023-05-07T03:15:40;14.23;92.68
67722;SHT31;58309;45.292;11.820;2023-05-07T03:18:05;14.26;92.07
67722;SHT31;58309;45.292;11.820;2023-05-07T03:20:31;14.28;92.13
67722;SHT31;58309;45.292;11.820;2023-05-07T03:22:56;14.25;92.05
67722;SHT31;58309;45.292;11.820;2023-05-07T03:25:22;14.28;92.05
67722;SHT31;58309;45.292;11.820;2023-05-07T03:27:47;14.32;92.48
67722;SHT31;58309;45.292;11.820;2023-05-07T03:30:13;14.33;92.08
67722;SHT31;58309;45.292;11.820;2023-05-07T03:32:38;14.37;92.29
67722;SHT31;58309;45.292;11.820;2023-05-07T03:35:04;14.42;91.85
67722;SHT31;58309;45.292;11.820;2023-05-07T03:37:30;14.44;91.69
67722;SHT31;58309;45.292;11.820;2023-05-07T03:39:55;14.47;91.74
67722;SHT31;58309;45.292;11.820;2023-05-07T03:42:21;14.50;91.67
67722;SHT31;58309;45.292;11.820;2023-05-07T03:44:47;14.55;91.72
67722;SHT31;58309;45.292;11.820;2023-05-07T03:47:12;14.56;91.57
67722;SHT31;58309;45.292;11.820;2023-05-07T03:49:39;14.59;91.30
67722;SHT31;58309;45.292;11.820;2023-05-07T03:52:05;14.52;91.24
67722;SHT31;58309;45.292;11.820;2023-05-07T03:54:30;14.47;91.37
67722;SHT31;58309;45.292;11.820;2023-05-07T03:56:56;14.44;91.45
67722;SHT31;58309;45.292;11.820;2023-05-07T03:59:22;14.42;91.59
67722;SHT31;58309;45.292;11.820;2023-05-07T04:01:47;14.39;91.33
67722;SHT31;58309;45.292;11.820;2023-05-07T04:04:14;14.40;91.08
67722;SHT31;58309;45.292;11.820;2023-05-07T04:06:40;14.39;91.12
67722;SHT31;58309;45.292;11.820;2023-05-07T04:09:05;14.37;90.71
67722;SHT31;58309;45.292;11.820;2023-05-07T04:11:31;14.36;90.98
67722;SHT31;58309;45.292;11.820;2023-05-07T04:13:57;14.34;90.75
67722;SHT31;58309;45.292;11.820;2023-05-07T04:16:22;14.37;90.94
67722;SHT31;58309;45.292;11.820;2023-05-07T04:18:48;14.42;90.46
67722;SHT31;58309;45.292;11.820;2023-05-07T04:21:19;14.46;90.18
67722;SHT31;58309;45.292;11.820;2023-05-07T04:23:49;14.46;90.45
67722;SHT31;58309;45.292;11.820;2023-05-07T04:26:15;14.50;90.66
67722;SHT31;58309;45.292;11.820;2023-05-07T04:28:41;14.55;90.61
67722;SHT31;58309;45.292;11.820;2023-05-07T04:31:07;14.60;90.73
67722;SHT31;58309;45.292;11.820;2023-05-07T04:33:32;14.69;90.91
67722;SHT31;58309;45.292;11.820;2023-05-07T04:36:01;14.73;90.80
67722;SHT31;58309;45.292;11.820;2023-05-07T04:38:29;14.76;91.00
67722;SHT31;58309;45.292;11.820;2023-05-07T04:40:55;14.79;91.11
67722;SHT31;58309;45.292;11.820;2023-05-07T04:43:21;14.88;91.34
67722;SHT31;58309;45.292;11.820;2023-05-07T04:45:47;14.97;91.18
67722;SHT31;58309;45.292;11.820;2023-05-07T04:48:14;15.04;91.12
67722;SHT31;58309;45.292;11.820;2023-05-07T04:50:40;15.17;90.96
67722;SHT31;58309;45.292;11.820;2023-05-07T04:53:06;15.28;90.44
67722;SHT31;58309;45.292;11.820;2023-05-07T04:55:32;15.41;89.80
67722;SHT31;58309;45.292;11.820;2023-05-07T04:57:57;15.49;89.30
67722;SHT31;58309;45.292;11.820;2023-05-07T05:00:23;15.58;89.55
67722;SHT31;58309;45.292;11.820;2023-05-07T05:02:48;15.67;89.25
67722;SHT31;58309;45.292;11.820;2023-05-07T05:05:14;15.75;88.95
67722;SHT31;58309;45.292;11.820;2023-05-07T05:07:40;15.81;89.19
67722;SHT31;58309;45.292;11.820;2023-05-07T05:10:06;15.92;88.94
67722;SHT31;58309;45.292;11.820;2023-05-07T05:12:31;16.00;88.98
67722;SHT31;58309;45.292;11.820;2023-05-07T05:14:57;16.14;88.66
67722;SHT31;58309;45.292;11.820;2023-05-07T05:17:22;16.28;88.07
67722;SHT31;58309;45.292;11.820;2023-05-07T05:19:48;16.43;88.54
67722;SHT31;58309;45.292;11.820;2023-05-07T05:22:14;16.58;88.43
67722;SHT31;58309;45.292;11.820;2023-05-07T05:24:39;16.71;87.43
67722;SHT31;58309;45.292;11.820;2023-05-07T05:27:05;16.81;87.95
67722;SHT31;58309;45.292;11.820;2023-05-07T05:29:30;16.95;87.61
67722;SHT31;58309;45.292;11.820;2023-05-07T05:31:57;17.03;87.92
67722;SHT31;58309;45.292;11.820;2023-05-07T05:34:22;17.15;87.75
67722;SHT31;58309;45.292;11.820;2023-05-07T05:36:48;17.20;86.91
67722;SHT31;58309;45.292;11.820;2023-05-07T05:39:13;17.36;86.46
67722;SHT31;58309;45.292;11.820;2023-05-07T05:41:39;17.50;86.83
67722;SHT31;58309;45.292;11.820;2023-05-07T05:44:05;17.57;84.88
67722;SHT31;58309;45.292;11.820;2023-05-07T05:46:31;17.69;84.17
67722;SHT31;58309;45.292;11.820;2023-05-07T05:48:57;17.74;85.02
67722;SHT31;58309;45.292;11.820;2023-05-07T05:51:22;17.70;84.53
67722;SHT31;58309;45.292;11.820;2023-05-07T05:53:48;17.74;84.55
67722;SHT31;58309;45.292;11.820;2023-05-07T05:56:15;17.87;83.21
67722;SHT31;58309;45.292;11.820;2023-05-07T05:58:40;17.93;83.97
67722;SHT31;58309;45.292;11.820;2023-05-07T06:01:06;18.05;83.54
67722;SHT31;58309;45.292;11.820;2023-05-07T06:03:32;18.18;84.39
67722;SHT31;58309;45.292;11.820;2023-05-07T06:05:57;18.24;83.27
67722;SHT31;58309;45.292;11.820;2023-05-07T06:08:23;18.25;83.95
67722;SHT31;58309;45.292;11.820;2023-05-07T06:10:49;18.25;82.54
67722;SHT31;58309;45.292;11.820;2023-05-07T06:13:14;18.29;82.38
67722;SHT31;58309;45.292;11.820;2023-05-07T06:15:40;18.38;82.85
67722;SHT31;58309;45.292;11.820;2023-05-07T06:18:05;18.35;83.63
67722;SHT31;58309;45.292;11.820;2023-05-07T06:20:31;18.41;81.82
67722;SHT31;58309;45.292;11.820;2023-05-07T06:22:57;18.38;82.82
67722;SHT31;58309;45.292;11.820;2023-05-07T06:25:22;18.46;83.15
67722;SHT31;58309;45.292;11.820;2023-05-07T06:27:47;18.56;82.59
67722;SHT31;58309;45.292;11.820;2023-05-07T06:30:13;18.69;82.19
67722;SHT31;58309;45.292;11.820;2023-05-07T06:32:40;18.72;82.10
67722;SHT31;58309;45.292;11.820;2023-05-07T06:35:06;18.79;81.61
67722;SHT31;58309;45.292;11.820;2023-05-07T06:37:31;18.83;82.31
67722;SHT31;58309;45.292;11.820;2023-05-07T06:39:57;18.96;81.42
67722;SHT31;58309;45.292;11.820;2023-05-07T06:42:22;19.07;82.99
67722;SHT31;58309;45.292;11.820;2023-05-07T06:44:48;19.08;79.93
67722;SHT31;58309;45.292;11.820;2023-05-07T06:47:14;19.20;80.56
67722;SHT31;58309;45.292;11.820;2023-05-07T06:49:39;19.43;80.04
67722;SHT31;58309;45.292;11.820;2023-05-07T06:52:05;19.52;79.35
67722;SHT31;58309;45.292;11.820;2023-05-07T06:54:30;19.61;80.16
67722;SHT31;58309;45.292;11.820;2023-05-07T06:56:56;19.81;79.60
67722;SHT31;58309;45.292;11.820;2023-05-07T06:59:21;19.92;79.14
67722;SHT31;58309;45.292;11.820;2023-05-07T07:01:47;20.02;77.60
67722;SHT31;58309;45.292;11.820;2023-05-07T07:04:12;20.13;77.85
67722;SHT31;58309;45.292;11.820;2023-05-07T07:06:38;20.23;77.83
67722;SHT31;58309;45.292;11.820;2023-05-07T07:09:03;20.30;76.65
67722;SHT31;58309;45.292;11.820;2023-05-07T07:11:29;20.44;75.86
67722;SHT31;58309;45.292;11.820;2023-05-07T07:13:54;20.55;77.28
67722;SHT31;58309;45.292;11.820;2023-05-07T07:16:21;20.67;77.76
67722;SHT31;58309;45.292;11.820;2023-05-07T07:18:46;20.74;75.89
67722;SHT31;58309;45.292;11.820;2023-05-07T07:21:12;20.87;74.96
67722;SHT31;58309;45.292;11.820;2023-05-07T07:23:37;20.57;76.23
67722;SHT31;58309;45.292;11.820;2023-05-07T07:26:03;20.80;76.01
67722;SHT31;58309;45.292;11.820;2023-05-07T07:28:29;21.05;75.66
67722;SHT31;58309;45.292;11.820;2023-05-07T07:30:54;21.14;74.64
67722;SHT31;58309;45.292;11.820;2023-05-07T07:33:20;21.39;73.56
67722;SHT31;58309;45.292;11.820;2023-05-07T07:35:46;21.59;72.24
67722;SHT31;58309;45.292;11.820;2023-05-07T07:38:11;21.73;73.86
67722;SHT31;58309;45.292;11.820;2023-05-07T07:40:37;21.80;71.70
67722;SHT31;58309;45.292;11.820;2023-05-07T07:43:02;21.79;73.53
67722;SHT31;58309;45.292;11.820;2023-05-07T07:45:28;21.70;73.16
67722;SHT31;58309;45.292;11.820;2023-05-07T07:47:54;21.72;73.11
67722;SHT31;58309;45.292;11.820;2023-05-07T07:50:20;21.83;69.69
67722;SHT31;58309;45.292;11.820;2023-05-07T07:52:45;22.00;70.77
67722;SHT31;58309;45.292;11.820;2023-05-07T07:55:11;22.15;68.88
67722;SHT31;58309;45.292;11.820;2023-05-07T07:57:37;22.22;68.55
67722;SHT31;58309;45.292;11.820;2023-05-07T08:00:03;22.37;68.83
67722;SHT31;58309;45.292;11.820;2023-05-07T08:02:29;22.18;70.21
67722;SHT31;58309;45.292;11.820;2023-05-07T08:04:54;22.45;69.95
67722;SHT31;58309;45.292;11.820;2023-05-07T08:07:20;22.79;69.23
67722;SHT31;58309;45.292;11.820;2023-05-07T08:09:48;22.99;65.07
67722;SHT31;58309;45.292;11.820;2023-05-07T08:12:14;23.65;64.55
67722;SHT31;58309;45.292;11.820;2023-05-07T08:14:40;24.87;60.55
67722;SHT31;58309;45.292;11.820;2023-05-07T08:17:06;25.83;56.83
67722;SHT31;58309;45.292;11.820;2023-05-07T08:19:32;27.35;58.40
67722;SHT31;58309;45.292;11.820;2023-05-07T08:21:57;27.94;53.93
67722;SHT31;58309;45.292;11.820;2023-05-07T08:24:23;29.06;51.84
67722;SHT31;58309;45.292;11.820;2023-05-07T08:26:48;29.46;50.95
67722;SHT31;58309;45.292;11.820;2023-05-07T08:29:14;29.91;47.31
67722;SHT31;58309;45.292;11.820;2023-05-07T08:31:40;28.38;50.31
67722;SHT31;58309;45.292;11.820;2023-05-07T08:34:06;27.47;51.02
67722;SHT31;58309;45.292;11.820;2023-05-07T08:36:32;26.88;50.01
67722;SHT31;58309;45.292;11.820;2023-05-07T08:38:57;26.80;52.63
67722;SHT31;58309;45.292;11.820;2023-05-07T08:41:23;26.81;52.98
67722;SHT31;58309;45.292;11.820;2023-05-07T08:43:50;26.57;52.05
67722;SHT31;58309;45.292;11.820;2023-05-07T08:46:20;26.90;51.43
67722;SHT31;58309;45.292;11.820;2023-05-07T08:48:49;26.81;54.68
67722;SHT31;58309;45.292;11.820;2023-05-07T08:51:17;27.05;52.06
67722;SHT31;58309;45.292;11.820;2023-05-07T08:53:43;26.87;51.46
67722;SHT31;58309;45.292;11.820;2023-05-07T08:56:09;27.33;53.36
67722;SHT31;58309;45.292;11.820;2023-05-07T08:58:35;27.01;55.42
67722;SHT31;58309;45.292;11.820;2023-05-07T09:01:07;27.63;49.98
67722;SHT31;58309;45.292;11.820;2023-05-07T09:03:33;27.56;53.01
67722;SHT31;58309;45.292;11.820;2023-05-07T09:05:58;27.05;53.42
67722;SHT31;58309;45.292;11.820;2023-05-07T09:08:25;27.29;54.41
67722;SHT31;58309;45.292;11.820;2023-05-07T09:10:52;27.22;55.54
67722;SHT31;58309;45.292;11.820;2023-05-07T09:13:17;26.94;54.74
67722;SHT31;58309;45.292;11.820;2023-05-07T09:15:43;26.95;55.42
67722;SHT31;58309;45.292;11.820;2023-05-07T09:18:09;27.33;54.87
67722;SHT31;58309;45.292;11.820;2023-05-07T09:20:36;27.57;52.61
67722;SHT31;58309;45.292;11.820;2023-05-07T09:23:02;28.63;49.72
67722;SHT31;58309;45.292;11.820;2023-05-07T09:25:29;29.16;48.35
67722;SHT31;58309;45.292;11.820;2023-05-07T09:27:55;30.04;45.33
67722;SHT31;58309;45.292;11.820;2023-05-07T09:30:21;30.02;46.35
67722;SHT31;58309;45.292;11.820;2023-05-07T09:32:46;30.22;44.90
67722;SHT31;58309;45.292;11.820;2023-05-07T09:35:16;30.64;46.71
67722;SHT31;58309;45.292;11.820;2023-05-07T09:37:46;31.07;41.80
67722;SHT31;58309;45.292;11.820;2023-05-07T09:40:27;31.76;44.07
67722;SHT31;58309;45.292;11.820;2023-05-07T09:42:53;32.31;39.30
67722;SHT31;58309;45.292;11.820;2023-05-07T09:45:22;32.44;38.14
67722;SHT31;58309;45.292;11.820;2023-05-07T09:47:49;32.27;40.51
67722;SHT31;58309;45.292;11.820;2023-05-07T09:50:19;32.00;38.72
67722;SHT31;58309;45.292;11.820;2023-05-07T09:52:45;31.53;39.22
67722;SHT31;58309;45.292;11.820;2023-05-07T09:55:11;30.66;44.17
67722;SHT31;58309;45.292;11.820;2023-05-07T09:57:38;30.70;46.25
67722;SHT31;58309;45.292;11.820;2023-05-07T10:00:05;31.35;40.86
67722;SHT31;58309;45.292;11.820;2023-05-07T10:02:35;31.31;40.43
67722;SHT31;58309;45.292;11.820;2023-05-07T10:05:02;30.86;42.36
67722;SHT31;58309;45.292;11.820;2023-05-07T10:07:28;31.21;41.18
67722;SHT31;58309;45.292;11.820;2023-05-07T10:09:54;31.25;41.75
67722;SHT31;58309;45.292;11.820;2023-05-07T10:12:21;31.73;42.00
67722;SHT31;58309;45.292;11.820;2023-05-07T10:14:47;31.97;39.62
67722;SHT31;58309;45.292;11.820;2023-05-07T10:17:16;32.40;40.29
67722;SHT31;58309;45.292;11.820;2023-05-07T10:19:44;32.53;38.10
67722;SHT31;58309;45.292;11.820;2023-05-07T10:22:11;33.17;39.51
67722;SHT31;58309;45.292;11.820;2023-05-07T10:24:37;33.59;37.12
67722;SHT31;58309;45.292;11.820;2023-05-07T10:27:10;33.99;37.07
67722;SHT31;58309;45.292;11.820;2023-05-07T10:29:42;33.96;39.91
67722;SHT31;58309;45.292;11.820;2023-05-07T10:34:41;34.06;35.35
67722;SHT31;58309;45.292;11.820;2023-05-07T10:37:07;33.70;35.77
67722;SHT31;58309;45.292;11.820;2023-05-07T10:39:33;34.00;36.55
67722;SHT31;58309;45.292;11.820;2023-05-07T10:42:14;33.86;37.12
67722;SHT31;58309;45.292;11.820;2023-05-07T10:44:40;33.85;35.67
67722;SHT31;58309;45.292;11.820;2023-05-07T10:47:10;33.55;36.03
67722;SHT31;58309;45.292;11.820;2023-05-07T10:52:22;34.28;38.64
67722;SHT31;58309;45.292;11.820;2023-05-07T10:57:46;34.96;35.50
67722;SHT31;58309;45.292;11.820;2023-05-07T11:05:30;33.56;38.79
67722;SHT31;58309;45.292;11.820;2023-05-07T11:08:03;32.50;41.46
67722;SHT31;58309;45.292;11.820;2023-05-07T11:10:52;31.10;44.42
67722;SHT31;58309;45.292;11.820;2023-05-07T11:13:19;31.17;41.63
67722;SHT31;58309;45.292;11.820;2023-05-07T11:16:04;31.15;43.33
67722;SHT31;58309;45.292;11.820;2023-05-07T11:18:47;30.97;45.13
67722;SHT31;58309;45.292;11.820;2023-05-07T11:23:57;30.46;44.61
67722;SHT31;58309;45.292;11.820;2023-05-07T11:26:23;31.03;42.96
67722;SHT31;58309;45.292;11.820;2023-05-07T11:28:49;31.59;44.47
67722;SHT31;58309;45.292;11.820;2023-05-07T11:31:20;30.60;44.47
67722;SHT31;58309;45.292;11.820;2023-05-07T11:33:46;30.23;44.23
67722;SHT31;58309;45.292;11.820;2023-05-07T11:36:12;31.08;43.49
67722;SHT31;58309;45.292;11.820;2023-05-07T11:38:38;32.45;40.86
67722;SHT31;58309;45.292;11.820;2023-05-07T11:41:04;33.07;39.38
67722;SHT31;58309;45.292;11.820;2023-05-07T11:43:31;33.52;40.51
67722;SHT31;58309;45.292;11.820;2023-05-07T11:46:10;34.28;37.49
67722;SHT31;58309;45.292;11.820;2023-05-07T11:48:36;34.18;37.68
67722;SHT31;58309;45.292;11.820;2023-05-07T11:51:04;34.45;38.30
67722;SHT31;58309;45.292;11.820;2023-05-07T11:53:41;33.65;39.98
67722;SHT31;58309;45.292;11.820;2023-05-07T11:56:15;33.74;39.25
67722;SHT31;58309;45.292;11.820;2023-05-07T11:58:42;32.63;42.99
67722;SHT31;58309;45.292;11.820;2023-05-07T12:01:12;31.49;41.43
67722;SHT31;58309;45.292;11.820;2023-05-07T12:03:43;31.78;44.79
67722;SHT31;58309;45.292;11.820;2023-05-07T12:06:11;32.05;43.82
67722;SHT31;58309;45.292;11.820;2023-05-07T12:08:39;32.67;41.31
67722;SHT31;58309;45.292;11.820;2023-05-07T12:11:18;32.60;40.87
67722;SHT31;58309;45.292;11.820;2023-05-07T12:13:47;32.70;43.20
67722;SHT31;58309;45.292;11.820;2023-05-07T12:16:14;32.81;42.78
67722;SHT31;58309;45.292;11.820;2023-05-07T12:18:39;32.72;39.26
67722;SHT31;58309;45.292;11.820;2023-05-07T12:21:06;31.58;39.52
67722;SHT31;58309;45.292;11.820;2023-05-07T12:23:36;30.60;41.36
67722;SHT31;58309;45.292;11.820;2023-05-07T12:26:02;29.82;43.79
67722;SHT31;58309;45.292;11.820;2023-05-07T12:28:28;29.19;46.43
67722;SHT31;58309;45.292;11.820;2023-05-07T12:30:54;28.99;48.23
67722;SHT31;58309;45.292;11.820;2023-05-07T12:33:24;28.25;48.47
67722;SHT31;58309;45.292;11.820;2023-05-07T12:35:50;28.25;48.32
67722;SHT31;58309;45.292;11.820;2023-05-07T12:38:17;28.11;47.82
67722;SHT31;58309;45.292;11.820;2023-05-07T12:40:48;27.97;50.34
67722;SHT31;58309;45.292;11.820;2023-05-07T12:43:27;27.66;50.34
67722;SHT31;58309;45.292;11.820;2023-05-07T12:46:00;27.80;47.61
67722;SHT31;58309;45.292;11.820;2023-05-07T12:48:27;27.79;48.83
67722;SHT31;58309;45.292;11.820;2023-05-07T12:50:54;27.82;51.62
67722;SHT31;58309;45.292;11.820;2023-05-07T12:53:22;27.76;49.16
67722;SHT31;58309;45.292;11.820;2023-05-07T12:55:50;27.90;49.79
67722;SHT31;58309;45.292;11.820;2023-05-07T12:58:17;27.43;52.95
67722;SHT31;58309;45.292;11.820;2023-05-07T13:00:44;27.69;49.28
67722;SHT31;58309;45.292;11.820;2023-05-07T13:03:10;27.90;48.74
67722;SHT31;58309;45.292;11.820;2023-05-07T13:05:36;27.90;47.77
67722;SHT31;58309;45.292;11.820;2023-05-07T13:08:02;27.71;49.17
67722;SHT31;58309;45.292;11.820;2023-05-07T13:10:28;27.76;48.96
67722;SHT31;58309;45.292;11.820;2023-05-07T13:12:54;27.23;49.46
67722;SHT31;58309;45.292;11.820;2023-05-07T13:15:19;27.38;47.63
67722;SHT31;58309;45.292;11.820;2023-05-07T13:17:45;27.46;46.27
67722;SHT31;58309;45.292;11.820;2023-05-07T13:20:11;27.59;48.64
67722;SHT31;58309;45.292;11.820;2023-05-07T13:22:38;27.41;53.17
67722;SHT31;58309;45.292;11.820;2023-05-07T13:25:04;27.77;48.14
67722;SHT31;58309;45.292;11.820;2023-05-07T13:27:30;27.63;47.78
67722;SHT31;58309;45.292;11.820;2023-05-07T13:29:56;27.56;50.22
67722;SHT31;58309;45.292;11.820;2023-05-07T13:32:22;27.69;47.29
67722;SHT31;58309;45.292;11.820;2023-05-07T13:34:48;27.33;50.64
67722;SHT31;58309;45.292;11.820;2023-05-07T13:37:13;27.50;49.07
67722;SHT31;58309;45.292;11.820;2023-05-07T13:39:39;27.62;49.80
67722;SHT31;58309;45.292;11.820;2023-05-07T13:42:06;27.04;50.25
67722;SHT31;58309;45.292;11.820;2023-05-07T13:44:32;27.42;49.03
67722;SHT31;58309;45.292;11.820;2023-05-07T13:46:57;27.23;50.01
67722;SHT31;58309;45.292;11.820;2023-05-07T13:49:23;27.49;55.11
67722;SHT31;58309;45.292;11.820;2023-05-07T13:51:49;27.36;50.84
67722;SHT31;58309;45.292;11.820;2023-05-07T13:54:15;27.47;50.74
67722;SHT31;58309;45.292;11.820;2023-05-07T13:56:41;27.64;49.30
67722;SHT31;58309;45.292;11.820;2023-05-07T13:59:07;27.84;48.94
67722;SHT31;58309;45.292;11.820;2023-05-07T14:01:33;27.67;48.31
67722;SHT31;58309;45.292;11.820;2023-05-07T14:03:58;27.69;50.01
67722;SHT31;58309;45.292;11.820;2023-05-07T14:06:25;27.77;48.49
67722;SHT31;58309;45.292;11.820;2023-05-07T14:08:51;27.83;49.20
67722;SHT31;58309;45.292;11.820;2023-05-07T14:11:17;27.49;47.28
67722;SHT31;58309;45.292;11.820;2023-05-07T14:13:42;27.29;47.97
67722;SHT31;58309;45.292;11.820;2023-05-07T14:16:08;27.09;52.46
67722;SHT31;58309;45.292;11.820;2023-05-07T14:18:33;27.13;51.51
67722;SHT31;58309;45.292;11.820;2023-05-07T14:21:00;27.09;52.04
67722;SHT31;58309;45.292;11.820;2023-05-07T14:23:26;27.25;53.60
67722;SHT31;58309;45.292;11.820;2023-05-07T14:25:53;27.47;54.49
67722;SHT31;58309;45.292;11.820;2023-05-07T14:28:19;27.01;53.49
67722;SHT31;58309;45.292;11.820;2023-05-07T14:30:44;27.45;54.14
67722;SHT31;58309;45.292;11.820;2023-05-07T14:33:10;27.52;52.80
67722;SHT31;58309;45.292;11.820;2023-05-07T14:35:36;27.53;54.56
67722;SHT31;58309;45.292;11.820;2023-05-07T14:38:02;27.63;53.66
67722;SHT31;58309;45.292;11.820;2023-05-07T14:40:28;27.50;49.97
67722;SHT31;58309;45.292;11.820;2023-05-07T14:42:53;27.02;51.17
67722;SHT31;58309;45.292;11.820;2023-05-07T14:45:21;27.18;53.38
67722;SHT31;58309;45.292;11.820;2023-05-07T14:47:46;27.18;54.15
67722;SHT31;58309;45.292;11.820;2023-05-07T14:50:12;27.26;56.93
67722;SHT31;58309;45.292;11.820;2023-05-07T14:52:37;27.46;52.44
67722;SHT31;58309;45.292;11.820;2023-05-07T14:55:06;28.05;50.27
67722;SHT31;58309;45.292;11.820;2023-05-07T14:57:31;28.59;47.66
67722;SHT31;58309;45.292;11.820;2023-05-07T15:00:01;29.26;46.70
67722;SHT31;58309;45.292;11.820;2023-05-07T15:02:26;29.57;47.24
67722;SHT31;58309;45.292;11.820;2023-05-07T15:04:53;29.49;47.92
67722;SHT31;58309;45.292;11.820;2023-05-07T15:07:19;28.65;49.63
67722;SHT31;58309;45.292;11.820;2023-05-07T15:09:46;28.31;50.20
67722;SHT31;58309;45.292;11.820;2023-05-07T15:12:13;27.91;51.04
67722;SHT31;58309;45.292;11.820;2023-05-07T15:14:40;27.71;52.84
67722;SHT31;58309;45.292;11.820;2023-05-07T15:17:07;27.35;52.60
67722;SHT31;58309;45.292;11.820;2023-05-07T15:19:33;27.19;53.92
67722;SHT31;58309;45.292;11.820;2023-05-07T15:22:00;27.11;54.74
67722;SHT31;58309;45.292;11.820;2023-05-07T15:24:31;27.05;53.93
67722;SHT31;58309;45.292;11.820;2023-05-07T15:26:57;26.99;54.64